createdAt,value
2022-11-22T00:00:01.529Z,1.00
2022-11-22T00:02:28.213Z,1.02
2022-11-22T00:04:54.802Z,1.77
2022-11-22T00:07:21.450Z,0.93
2022-11-22T00:09:49.453Z,0.72
2022-11-22T00:12:15.978Z,0.56
2022-11-22T00:14:42.517Z,0.84
2022-11-22T00:17:09.099Z,1.07
2022-11-22T00:19:35.635Z,0.94
2022-11-22T00:22:02.209Z,0.76
2022-11-22T00:24:28.829Z,1.29
2022-11-22T00:26:56.691Z,0.68
2022-11-22T00:29:23.221Z,0.78
2022-11-22T00:31:49.866Z,1.01
2022-11-22T00:34:16.483Z,0.88
2022-11-22T00:36:43.041Z,1.41
2022-11-22T00:39:09.723Z,1.07
2022-11-22T00:41:36.227Z,0.80
2022-11-22T00:44:04.411Z,1.03
2022-11-22T00:46:30.959Z,1.08
2022-11-22T00:48:57.480Z,1.15
2022-11-22T00:51:24.006Z,1.26
2022-11-22T00:53:50.691Z,0.93
2022-11-22T00:56:17.232Z,0.87
2022-11-22T00:58:43.755Z,0.71
2022-11-22T01:01:11.716Z,0.80
2022-11-22T01:03:38.348Z,1.09
2022-11-22T01:06:04.961Z,1.07
2022-11-22T01:08:31.508Z,1.13
2022-11-22T01:10:59.053Z,1.01
2022-11-22T01:13:26.939Z,0.87
2022-11-22T01:15:54.226Z,1.14
2022-11-22T01:18:22.105Z,1.21
2022-11-22T01:20:48.585Z,1.18
2022-11-22T01:23:15.089Z,1.22
2022-11-22T01:25:42.799Z,1.05
2022-11-22T01:28:09.394Z,1.03
2022-11-22T01:30:35.986Z,1.39
2022-11-22T01:33:02.943Z,1.32
2022-11-22T01:35:30.912Z,1.08
2022-11-22T01:37:57.482Z,1.42
2022-11-22T01:40:24.035Z,1.57
2022-11-22T01:42:52.992Z,1.42
2022-11-22T01:45:42.783Z,1.53
2022-11-22T01:48:21.366Z,1.48
2022-11-22T01:50:55.234Z,1.51
2022-11-22T01:53:24.566Z,1.32
2022-11-22T01:55:52.522Z,1.70
2022-11-22T01:58:21.606Z,1.33
2022-11-22T02:00:51.599Z,1.82
2022-11-22T02:03:19.182Z,1.99
2022-11-22T02:05:48.001Z,2.32
2022-11-22T02:08:22.543Z,1.79
2022-11-22T02:10:51.959Z,2.03
2022-11-22T02:13:21.831Z,2.12
2022-11-22T02:15:49.376Z,1.82
2022-11-22T02:18:15.967Z,1.88
2022-11-22T02:20:42.824Z,1.94
2022-11-22T02:23:17.399Z,1.68
2022-11-22T02:25:51.041Z,1.71
2022-11-22T02:28:17.647Z,1.67
2022-11-22T02:30:44.766Z,1.46
2022-11-22T02:33:11.426Z,1.75
2022-11-22T02:35:39.543Z,1.67
2022-11-22T02:38:09.346Z,1.63
2022-11-22T02:40:40.454Z,1.61
2022-11-22T02:43:13.287Z,2.02
2022-11-22T02:45:39.824Z,1.86
2022-11-22T02:48:08.290Z,1.48
2022-11-22T02:50:35.271Z,1.68
2022-11-22T02:53:02.000Z,1.70
2022-11-22T02:55:29.763Z,1.39
2022-11-22T02:57:56.448Z,1.81
2022-11-22T03:00:24.454Z,2.30
2022-11-22T03:02:51.047Z,1.91
2022-11-22T03:05:17.987Z,1.82
2022-11-22T03:07:44.599Z,1.73
2022-11-22T03:10:11.200Z,1.56
2022-11-22T03:12:37.730Z,1.51
2022-11-22T03:15:04.938Z,1.19
2022-11-22T03:17:32.835Z,1.53
2022-11-22T03:19:59.590Z,1.52
2022-11-22T03:22:26.158Z,1.25
2022-11-22T03:24:52.662Z,1.57
2022-11-22T03:27:19.245Z,1.54
2022-11-22T03:29:45.864Z,1.49
2022-11-22T03:32:12.489Z,1.61
2022-11-22T03:34:40.436Z,1.44
2022-11-22T03:37:07.019Z,1.42
2022-11-22T03:39:33.554Z,1.57
2022-11-22T03:42:00.353Z,1.49
2022-11-22T03:44:27.179Z,1.92
2022-11-22T03:46:53.706Z,1.43
2022-11-22T03:49:20.231Z,1.43
2022-11-22T03:51:48.052Z,1.41
2022-11-22T03:54:14.580Z,1.51
2022-11-22T03:56:41.133Z,1.31
2022-11-22T03:59:07.688Z,1.38
2022-11-22T04:01:34.313Z,1.58
2022-11-22T04:04:00.912Z,1.69
2022-11-22T04:06:27.636Z,1.47
2022-11-22T04:08:55.668Z,1.74
2022-11-22T04:11:22.261Z,1.85
2022-11-22T04:13:48.957Z,2.00
2022-11-22T04:16:15.577Z,2.04
2022-11-22T04:18:42.218Z,1.63
2022-11-22T04:21:08.907Z,1.73
2022-11-22T04:23:35.427Z,1.62
2022-11-22T04:26:03.382Z,1.81
2022-11-22T04:29:02.019Z,2.46
2022-11-22T04:31:16.502Z,1.86
2022-11-22T04:33:43.053Z,1.91
2022-11-22T04:36:13.274Z,2.01
2022-11-22T04:38:40.089Z,2.18
2022-11-22T04:41:08.004Z,1.82
2022-11-22T04:43:34.545Z,1.61
2022-11-22T04:46:01.605Z,1.73
2022-11-22T04:48:28.317Z,1.95
2022-11-22T04:50:54.873Z,1.77
2022-11-22T04:53:21.399Z,1.89
2022-11-22T04:55:48.004Z,1.90
2022-11-22T04:58:16.358Z,1.77
2022-11-22T05:00:43.351Z,1.91
2022-11-22T05:03:10.616Z,1.89
2022-11-22T05:05:39.160Z,2.16
2022-11-22T05:08:06.984Z,2.17
2022-11-22T05:10:34.102Z,2.05
2022-11-22T05:13:00.621Z,2.00
2022-11-22T05:15:28.565Z,2.07
2022-11-22T05:17:55.682Z,1.93
2022-11-22T05:20:22.171Z,2.49
2022-11-22T05:22:48.677Z,2.13
2022-11-22T05:25:15.390Z,1.88
2022-11-22T05:27:41.882Z,2.26
2022-11-22T05:30:09.087Z,2.04
2022-11-22T05:32:37.001Z,2.18
2022-11-22T05:35:03.953Z,1.99
2022-11-22T05:37:30.476Z,2.21
2022-11-22T05:39:56.987Z,2.06
2022-11-22T05:42:23.477Z,2.18
2022-11-22T05:44:50.003Z,2.22
2022-11-22T05:47:16.557Z,2.22
2022-11-22T05:49:44.474Z,2.30
2022-11-22T05:52:10.965Z,2.38
2022-11-22T05:54:37.727Z,2.67
2022-11-22T05:57:04.268Z,2.59
2022-11-22T05:59:31.221Z,2.88
2022-11-22T06:01:58.106Z,2.29
2022-11-22T06:04:24.699Z,2.48
2022-11-22T06:06:52.606Z,2.26
2022-11-22T06:09:19.207Z,2.67
2022-11-22T06:11:45.743Z,2.07
2022-11-22T06:14:12.266Z,2.49
2022-11-22T06:16:39.056Z,2.60
2022-11-22T06:19:05.606Z,2.67
2022-11-22T06:21:32.188Z,2.41
2022-11-22T06:24:00.409Z,2.57
2022-11-22T06:26:28.038Z,2.71
2022-11-22T06:28:54.907Z,2.98
2022-11-22T06:31:23.466Z,2.93
2022-11-22T06:33:50.548Z,2.46
2022-11-22T06:36:19.455Z,2.51
2022-11-22T06:38:46.692Z,2.64
2022-11-22T06:41:15.981Z,2.65
2022-11-22T06:43:48.589Z,2.56
2022-11-22T06:46:16.857Z,2.57
2022-11-22T06:48:43.816Z,2.42
2022-11-22T06:51:12.101Z,2.82
2022-11-22T06:53:47.293Z,2.72
2022-11-22T06:56:18.432Z,2.63
2022-11-22T06:58:45.662Z,2.65
2022-11-22T07:01:14.472Z,2.60
2022-11-22T07:03:42.418Z,3.00
2022-11-22T07:06:10.934Z,2.78
2022-11-22T07:08:38.342Z,2.87
2022-11-22T07:11:06.817Z,3.21
2022-11-22T07:13:35.890Z,3.06
2022-11-22T07:16:04.667Z,2.88
2022-11-22T07:18:32.155Z,3.28
2022-11-22T07:21:00.707Z,3.51
2022-11-22T07:23:27.119Z,3.11
2022-11-22T07:25:53.536Z,3.31
2022-11-22T07:28:20.317Z,3.62
2022-11-22T07:30:48.080Z,3.68
2022-11-22T07:33:14.495Z,3.48
2022-11-22T07:35:41.044Z,3.30
2022-11-22T07:38:07.718Z,3.36
2022-11-22T07:40:34.216Z,3.37
2022-11-22T07:43:00.652Z,3.48
2022-11-22T07:45:27.275Z,3.42
2022-11-22T07:47:55.020Z,3.23
2022-11-22T07:50:21.438Z,3.63
2022-11-22T07:52:54.984Z,3.72
2022-11-22T07:55:21.408Z,4.04
2022-11-22T07:57:47.846Z,3.65
2022-11-22T08:00:14.899Z,3.82
2022-11-22T08:02:41.341Z,3.76
2022-11-22T08:05:09.450Z,3.77
2022-11-22T08:07:35.976Z,3.92
2022-11-22T08:10:02.489Z,3.79
2022-11-22T08:12:28.903Z,3.75
2022-11-22T08:14:55.341Z,4.08
2022-11-22T08:17:21.773Z,4.29
2022-11-22T08:19:48.337Z,4.39
2022-11-22T08:22:16.090Z,4.23
2022-11-22T08:24:42.697Z,4.48
2022-11-22T08:27:09.106Z,3.97
2022-11-22T08:29:35.492Z,4.38
2022-11-22T08:32:02.054Z,4.33
2022-11-22T08:34:28.603Z,4.04
2022-11-22T08:36:55.016Z,4.31
2022-11-22T08:39:22.792Z,3.95
2022-11-22T08:41:49.237Z,4.14
2022-11-22T08:44:15.730Z,4.13
2022-11-22T08:46:42.161Z,4.28
2022-11-22T08:49:10.477Z,4.47
2022-11-22T08:51:37.197Z,4.53
2022-11-22T08:54:03.723Z,4.65
2022-11-22T08:56:31.447Z,4.77
2022-11-22T08:58:57.879Z,4.79
2022-11-22T09:01:24.412Z,4.64
2022-11-22T09:03:50.885Z,4.92
2022-11-22T09:11:53.188Z,4.46
2022-11-22T09:14:19.666Z,5.04
2022-11-22T09:16:46.129Z,5.34
2022-11-22T09:19:12.577Z,5.07
2022-11-22T09:21:39.123Z,4.60
2022-11-22T09:24:05.975Z,5.07
2022-11-22T09:26:32.546Z,5.73
2022-11-22T09:29:00.489Z,5.44
2022-11-22T09:31:26.931Z,5.44
2022-11-22T09:33:53.419Z,5.41
2022-11-22T09:36:21.112Z,5.88
2022-11-22T09:38:47.801Z,6.23
2022-11-22T09:41:23.729Z,6.27
2022-11-22T09:44:00.420Z,5.69
2022-11-22T09:46:37.691Z,6.08
2022-11-22T09:49:25.705Z,5.69
2022-11-22T09:52:02.768Z,5.85
2022-11-22T09:54:37.634Z,6.60
2022-11-22T09:57:09.862Z,5.80
2022-11-22T09:59:39.539Z,6.20
2022-11-22T10:02:18.862Z,6.27
2022-11-22T10:04:51.682Z,5.55
2022-11-22T10:07:22.455Z,5.41
2022-11-22T10:09:54.329Z,5.81
2022-11-22T10:12:25.506Z,5.71
2022-11-22T10:14:55.659Z,5.90
2022-11-22T10:17:34.247Z,6.09
2022-11-22T10:20:06.500Z,6.68
2022-11-22T10:22:34.057Z,6.07
2022-11-22T10:25:16.013Z,5.94
2022-11-22T10:27:43.313Z,6.35
2022-11-22T10:30:15.282Z,6.35
2022-11-22T10:32:55.262Z,6.13
2022-11-22T10:35:37.798Z,6.32
2022-11-22T10:38:28.269Z,6.54
2022-11-22T10:41:01.847Z,6.27
2022-11-22T10:43:37.505Z,6.29
2022-11-22T10:46:12.144Z,6.53
2022-11-22T10:48:46.851Z,6.64
2022-11-22T10:51:19.467Z,6.82
2022-11-22T10:54:01.930Z,6.39
2022-11-22T10:56:34.976Z,6.59
2022-11-22T10:59:16.989Z,6.54
2022-11-22T11:01:50.669Z,6.54
2022-11-22T11:04:19.672Z,6.29
2022-11-22T11:07:11.071Z,6.67
2022-11-22T11:10:10.748Z,6.85
2022-11-22T11:12:36.489Z,6.87
2022-11-22T11:15:06.443Z,6.81
2022-11-22T11:17:37.037Z,7.00
2022-11-22T11:20:15.959Z,7.18
2022-11-22T11:23:13.234Z,7.14
2022-11-22T11:25:31.252Z,7.47
2022-11-22T11:28:02.071Z,7.86
2022-11-22T11:30:28.956Z,7.65
2022-11-22T11:32:56.745Z,7.75
2022-11-22T11:35:27.682Z,7.46
2022-11-22T11:37:55.326Z,7.13
2022-11-22T11:40:27.710Z,7.16
2022-11-22T11:43:15.185Z,7.67
2022-11-22T11:45:41.911Z,7.51
2022-11-22T11:48:36.048Z,7.43
2022-11-22T11:51:12.367Z,7.33
2022-11-22T11:53:41.309Z,7.55
2022-11-22T11:56:27.230Z,7.66
2022-11-22T11:58:55.384Z,7.89
2022-11-22T12:01:24.620Z,7.88
2022-11-22T12:03:57.047Z,7.73
2022-11-22T12:06:29.679Z,7.91
2022-11-22T12:08:56.880Z,7.64
2022-11-22T12:11:30.652Z,8.13
2022-11-22T12:16:48.926Z,7.76
2022-11-22T12:19:24.767Z,8.10
2022-11-22T12:22:00.764Z,7.73
2022-11-22T12:25:09.296Z,7.45
2022-11-22T12:27:19.556Z,8.04
2022-11-22T12:29:46.320Z,8.04
2022-11-22T12:32:16.565Z,7.96
2022-11-22T12:34:51.081Z,7.89
2022-11-22T12:37:24.414Z,7.61
2022-11-22T12:39:54.255Z,6.95
2022-11-22T12:42:28.453Z,7.23
2022-11-22T12:45:01.163Z,7.15
2022-11-22T12:47:35.651Z,7.27
2022-11-22T12:50:09.255Z,7.84
2022-11-22T12:52:41.985Z,7.32
2022-11-22T12:55:16.358Z,7.36
2022-11-22T12:57:52.789Z,7.34
2022-11-22T13:00:21.638Z,7.65
2022-11-22T13:02:59.360Z,7.21
2022-11-22T13:05:29.056Z,7.54
2022-11-22T13:08:05.591Z,7.55
2022-11-22T13:10:37.667Z,7.64
2022-11-22T13:13:13.603Z,7.91
2022-11-22T13:15:40.901Z,8.25
2022-11-22T13:18:09.328Z,7.57
2022-11-22T13:20:42.999Z,7.72
2022-11-22T13:23:49.329Z,7.60
2022-11-22T13:26:23.216Z,7.26
2022-11-22T13:28:50.922Z,7.33
2022-11-22T13:31:19.306Z,7.52
2022-11-22T13:33:55.509Z,7.60
2022-11-22T13:36:47.623Z,7.67
2022-11-22T13:39:21.105Z,7.66
2022-11-22T13:42:00.487Z,7.43
2022-11-22T13:44:50.226Z,7.21
2022-11-22T13:47:37.809Z,7.59
2022-11-22T13:50:37.876Z,7.33
2022-11-22T13:53:22.033Z,7.51
2022-11-22T13:55:50.017Z,7.76
2022-11-22T13:58:51.688Z,7.46
2022-11-22T14:02:01.785Z,7.19
2022-11-22T14:04:42.378Z,7.47
2022-11-22T14:07:34.527Z,7.72
2022-11-22T14:10:02.550Z,7.77
2022-11-22T14:13:03.539Z,7.56
2022-11-22T14:15:51.025Z,7.50
2022-11-22T14:18:38.636Z,7.66
2022-11-22T14:21:09.684Z,7.74
2022-11-22T14:23:49.944Z,7.51
2022-11-22T14:26:24.402Z,7.50
2022-11-22T14:29:37.106Z,7.59
2022-11-22T14:32:13.480Z,7.70
2022-11-22T14:35:16.739Z,7.51
2022-11-22T14:37:56.424Z,7.43
2022-11-22T14:40:31.254Z,7.45
2022-11-22T14:43:00.626Z,6.97
2022-11-22T14:45:40.149Z,7.20
2022-11-22T14:48:16.540Z,7.13
2022-11-22T14:50:46.969Z,7.44
2022-11-22T14:53:35.586Z,7.29
2022-11-22T14:56:08.972Z,7.32
2022-11-22T14:58:39.119Z,7.28
2022-11-22T15:01:47.422Z,7.23
2022-11-22T15:09:22.732Z,7.16
2022-11-22T15:09:23.697Z,7.24
2022-11-22T15:10:51.307Z,7.17
2022-11-22T15:13:47.408Z,7.53
2022-11-22T15:59:41.325Z,7.23
2022-11-22T16:02:13.816Z,6.91
2022-11-22T16:04:47.816Z,6.76
2022-11-22T16:07:28.164Z,6.78
2022-11-22T16:09:54.787Z,6.22
2022-11-22T16:12:29.194Z,6.11
2022-11-22T16:14:55.996Z,6.12
2022-11-22T16:17:28.556Z,5.90
2022-11-22T16:20:25.448Z,5.66
2022-11-22T16:23:22.534Z,5.94
2022-11-22T16:25:51.024Z,5.83
2022-11-22T16:28:26.789Z,5.85
2022-11-22T16:30:54.695Z,5.91
2022-11-22T16:33:21.903Z,5.47
2022-11-22T16:35:52.290Z,5.71
2022-11-22T16:38:20.250Z,5.95
2022-11-22T16:40:46.986Z,5.71
2022-11-22T16:43:15.384Z,6.12
2022-11-22T16:45:42.193Z,5.93
2022-11-22T16:48:30.784Z,6.13
2022-11-22T16:51:04.652Z,5.73
2022-11-22T16:53:40.059Z,6.33
2022-11-22T16:56:07.222Z,6.32
2022-11-22T16:58:33.637Z,6.16
2022-11-22T17:01:00.835Z,6.43
2022-11-22T17:03:28.266Z,6.28
2022-11-22T17:05:54.683Z,6.31
2022-11-22T17:08:21.085Z,6.58
2022-11-22T17:10:50.748Z,6.20
2022-11-22T17:13:22.306Z,6.63
2022-11-22T17:15:48.868Z,6.21
2022-11-22T17:18:15.764Z,6.32
2022-11-22T17:20:42.191Z,6.61
2022-11-22T17:23:14.509Z,6.59
2022-11-22T17:25:40.997Z,6.34
2022-11-22T17:28:08.786Z,6.39
2022-11-22T17:30:35.377Z,6.57
2022-11-22T17:33:01.947Z,6.39
2022-11-22T17:35:29.159Z,6.44
2022-11-22T17:37:57.882Z,6.32
2022-11-22T17:40:24.338Z,6.43
2022-11-22T17:42:50.734Z,6.74
2022-11-22T17:45:19.489Z,6.54
2022-11-22T17:47:46.058Z,6.59
2022-11-22T17:50:12.455Z,6.77
2022-11-22T17:52:38.864Z,6.38
2022-11-22T17:55:09.404Z,6.69
2022-11-22T17:57:38.264Z,6.77
2022-11-22T18:00:05.685Z,7.10
2022-11-22T18:02:33.891Z,7.10
2022-11-22T18:05:00.377Z,7.23
2022-11-22T18:07:26.973Z,6.87
2022-11-22T18:09:53.489Z,6.57
2022-11-22T18:12:19.963Z,7.04
2022-11-22T18:14:46.418Z,7.00
2022-11-22T18:17:12.931Z,6.93
2022-11-22T18:19:41.317Z,7.00
2022-11-22T18:22:08.728Z,7.17
2022-11-22T18:24:36.390Z,7.12
2022-11-22T18:27:03.509Z,6.92
2022-11-22T18:29:42.192Z,6.84
2022-11-22T18:32:10.362Z,6.65
2022-11-22T18:34:38.493Z,6.84
2022-11-22T18:37:12.463Z,7.08
2022-11-22T18:39:39.548Z,6.93
2022-11-22T18:42:08.007Z,6.52
2022-11-22T18:44:34.538Z,6.71
2022-11-22T18:47:01.097Z,6.81
2022-11-22T18:49:27.541Z,6.96
2022-11-22T18:51:54.047Z,7.15
2022-11-22T18:54:21.993Z,6.70
2022-11-22T18:56:48.629Z,7.22
2022-11-22T18:59:15.110Z,7.32
2022-11-22T19:01:41.907Z,6.87
2022-11-22T19:04:10.191Z,7.04
2022-11-22T19:06:36.584Z,7.31
2022-11-22T19:09:03.293Z,6.90
2022-11-22T19:11:31.277Z,7.19
2022-11-22T19:13:57.747Z,7.19
2022-11-22T19:16:24.274Z,7.17
2022-11-22T19:18:50.779Z,6.97
2022-11-22T19:21:18.681Z,7.25
2022-11-22T19:23:45.763Z,6.83
2022-11-22T19:26:14.350Z,6.87
2022-11-22T19:28:42.523Z,6.94
2022-11-22T19:31:11.513Z,6.88
2022-11-22T19:33:38.453Z,6.79
2022-11-22T19:36:07.575Z,6.52
2022-11-22T19:38:34.250Z,6.46
2022-11-22T19:41:00.797Z,7.04
2022-11-22T19:43:27.318Z,6.60
2022-11-22T19:45:59.647Z,6.67
2022-11-22T19:48:26.559Z,6.36
2022-11-22T19:50:53.010Z,6.69
2022-11-22T19:53:19.452Z,6.43
2022-11-22T19:55:45.948Z,6.60
2022-11-22T19:58:12.363Z,7.04
2022-11-22T20:00:38.954Z,6.50
2022-11-22T20:03:06.703Z,6.36
2022-11-22T20:05:33.271Z,6.18
2022-11-22T20:07:59.891Z,6.42
2022-11-22T20:10:26.364Z,6.58
2022-11-22T20:12:52.815Z,6.24
2022-11-22T20:15:19.905Z,6.23
2022-11-22T20:17:46.365Z,6.66
2022-11-22T20:20:15.117Z,6.29
2022-11-22T20:22:41.655Z,6.68
2022-11-22T20:25:08.909Z,6.58
2022-11-22T20:27:35.331Z,6.32
2022-11-22T20:30:01.967Z,6.53
2022-11-22T20:32:28.485Z,6.43
2022-11-22T20:34:54.902Z,7.03
2022-11-22T20:37:22.692Z,6.56
2022-11-22T20:39:49.110Z,6.48
2022-11-22T20:45:01.925Z,6.59
2022-11-22T20:47:30.319Z,6.54
2022-11-22T20:49:56.748Z,6.63
2022-11-22T20:52:24.525Z,7.00
2022-11-22T20:54:50.926Z,7.04
2022-11-22T20:57:17.336Z,6.72
2022-11-22T20:59:43.814Z,6.85
2022-11-22T21:02:10.439Z,6.71
2022-11-22T21:04:37.188Z,6.57
2022-11-22T21:07:03.757Z,6.75
2022-11-22T21:09:31.585Z,7.06
2022-11-22T21:11:58.048Z,7.26
2022-11-22T21:14:24.545Z,6.88
2022-11-22T21:16:50.962Z,6.98
2022-11-22T21:19:17.391Z,6.96
2022-11-22T21:21:43.834Z,7.18
2022-11-22T21:24:11.844Z,7.32
2022-11-22T21:26:39.589Z,7.39
2022-11-22T21:29:07.035Z,6.74
2022-11-22T21:31:35.588Z,6.85
2022-11-22T21:34:02.086Z,7.25
2022-11-22T21:36:28.527Z,6.89
2022-11-22T21:38:54.949Z,6.88
2022-11-22T21:44:10.207Z,7.15
2022-11-22T21:46:36.793Z,7.29
2022-11-22T21:49:03.362Z,6.81
2022-11-22T21:51:29.803Z,7.17
2022-11-22T21:53:56.895Z,7.32
2022-11-22T21:56:23.314Z,7.26
2022-11-22T21:58:49.720Z,7.36
2022-11-22T22:01:17.560Z,7.08
2022-11-22T22:03:44.018Z,6.98
2022-11-22T22:06:10.434Z,7.24
2022-11-22T22:08:36.891Z,7.14
2022-11-22T22:11:04.110Z,7.07
2022-11-22T22:13:30.936Z,7.24
2022-11-22T22:15:57.800Z,7.42
2022-11-22T22:18:30.809Z,7.28
2022-11-22T22:21:01.892Z,7.24
2022-11-22T22:23:28.659Z,7.52
2022-11-22T22:25:59.059Z,7.41
2022-11-22T22:28:27.516Z,8.12
2022-11-22T22:31:01.785Z,8.10
2022-11-22T22:33:29.983Z,8.37
2022-11-22T22:35:56.429Z,8.15
2022-11-22T22:38:22.913Z,7.80
2022-11-22T22:40:52.372Z,7.51
2022-11-22T22:43:18.784Z,7.72
2022-11-22T22:45:45.255Z,7.82
2022-11-22T22:48:11.640Z,7.51
2022-11-22T22:50:39.362Z,7.60
2022-11-22T22:53:05.762Z,7.21
2022-11-22T22:55:32.214Z,7.27
2022-11-22T22:57:59.774Z,7.59
2022-11-22T23:00:26.217Z,7.67
2022-11-22T23:02:52.778Z,7.66
2022-11-22T23:05:19.478Z,7.51
2022-11-22T23:07:47.303Z,7.31
2022-11-22T23:10:14.040Z,7.60
2022-11-22T23:12:40.451Z,7.61
2022-11-22T23:15:08.316Z,7.77
2022-11-22T23:17:34.741Z,7.79
2022-11-22T23:20:01.195Z,7.44
2022-11-22T23:22:27.630Z,7.56
2022-11-22T23:24:55.378Z,7.42
2022-11-22T23:27:21.768Z,7.49
2022-11-22T23:29:48.306Z,7.17
2022-11-22T23:32:14.756Z,7.35
2022-11-22T23:34:41.154Z,7.39
2022-11-22T23:37:07.553Z,7.42
2022-11-22T23:39:34.178Z,7.74
2022-11-22T23:42:01.985Z,7.33
2022-11-22T23:44:28.383Z,7.43
2022-11-22T23:46:54.885Z,7.49
2022-11-22T23:49:21.323Z,7.57
2022-11-22T23:51:47.833Z,7.68
2022-11-22T23:54:14.242Z,7.47
2022-11-22T23:56:40.666Z,8.09
2022-11-22T23:59:09.472Z,7.81
